sensor_id;sensor_type;location;lat;lon;timestamp;temperature;humidity
19536;HTU21D;9913;51.168;4.124;2023-03-01T00:01:17;-0.21;75.22
19536;HTU21D;9913;51.168;4.124;2023-03-01T00:03:46;-0.25;75.34
19536;HTU21D;9913;51.168;4.124;2023-03-01T00:06:14;-0.31;74.86
19536;HTU21D;9913;51.168;4.124;2023-03-01T00:08:43;-0.34;75.09
19536;HTU21D;9913;51.168;4.124;2023-03-01T00:11:13;-0.32;75.32
19536;HTU21D;9913;51.168;4.124;2023-03-01T00:13:42;-0.30;75.19
19536;HTU21D;9913;51.168;4.124;2023-03-01T00:16:12;-0.34;74.87
19536;HTU21D;9913;51.168;4.124;2023-03-01T00:18:42;-0.42;74.95
19536;HTU21D;9913;51.168;4.124;2023-03-01T00:21:11;-0.44;74.94
19536;HTU21D;9913;51.168;4.124;2023-03-01T00:23:40;-0.44;74.99
19536;HTU21D;9913;51.168;4.124;2023-03-01T00:26:10;-0.40;75.01
19536;HTU21D;9913;51.168;4.124;2023-03-01T00:28:40;-0.36;74.86
19536;HTU21D;9913;51.168;4.124;2023-03-01T00:31:10;-0.36;74.89
19536;HTU21D;9913;51.168;4.124;2023-03-01T00:33:39;-0.40;74.86
19536;HTU21D;9913;51.168;4.124;2023-03-01T00:36:10;-0.42;74.86
19536;HTU21D;9913;51.168;4.124;2023-03-01T00:38:40;-0.43;74.25
19536;HTU21D;9913;51.168;4.124;2023-03-01T00:41:11;-0.43;74.55
19536;HTU21D;9913;51.168;4.124;2023-03-01T00:43:41;-0.43;74.53
19536;HTU21D;9913;51.168;4.124;2023-03-01T00:46:12;-0.51;73.62
19536;HTU21D;9913;51.168;4.124;2023-03-01T00:48:41;-0.49;73.73
19536;HTU21D;9913;51.168;4.124;2023-03-01T00:51:12;-0.56;74.66
19536;HTU21D;9913;51.168;4.124;2023-03-01T00:53:40;-0.60;74.55
19536;HTU21D;9913;51.168;4.124;2023-03-01T00:56:11;-0.57;74.71
19536;HTU21D;9913;51.168;4.124;2023-03-01T00:58:39;-0.51;74.90
19536;HTU21D;9913;51.168;4.124;2023-03-01T01:01:09;-0.49;74.79
19536;HTU21D;9913;51.168;4.124;2023-03-01T01:03:46;-0.50;75.00
19536;HTU21D;9913;51.168;4.124;2023-03-01T01:06:17;-0.51;74.86
19536;HTU21D;9913;51.168;4.124;2023-03-01T01:08:47;-0.51;74.85
19536;HTU21D;9913;51.168;4.124;2023-03-01T01:11:16;-0.44;74.85
19536;HTU21D;9913;51.168;4.124;2023-03-01T01:13:45;-0.50;75.01
19536;HTU21D;9913;51.168;4.124;2023-03-01T01:16:14;-0.58;74.60
19536;HTU21D;9913;51.168;4.124;2023-03-01T01:18:43;-0.61;74.71
19536;HTU21D;9913;51.168;4.124;2023-03-01T01:21:13;-0.60;74.95
19536;HTU21D;9913;51.168;4.124;2023-03-01T01:23:43;-0.66;74.92
19536;HTU21D;9913;51.168;4.124;2023-03-01T01:26:15;-0.64;75.12
19536;HTU21D;9913;51.168;4.124;2023-03-01T01:28:44;-0.66;75.09
19536;HTU21D;9913;51.168;4.124;2023-03-01T01:31:12;-0.68;75.13
19536;HTU21D;9913;51.168;4.124;2023-03-01T01:33:41;-0.70;75.09
19536;HTU21D;9913;51.168;4.124;2023-03-01T01:36:10;-0.72;75.31
19536;HTU21D;9913;51.168;4.124;2023-03-01T01:38:39;-0.79;75.26
19536;HTU21D;9913;51.168;4.124;2023-03-01T01:41:11;-0.86;74.99
19536;HTU21D;9913;51.168;4.124;2023-03-01T01:43:42;-0.93;74.90
19536;HTU21D;9913;51.168;4.124;2023-03-01T01:46:18;-0.96;74.73
19536;HTU21D;9913;51.168;4.124;2023-03-01T01:48:52;-0.90;74.05
19536;HTU21D;9913;51.168;4.124;2023-03-01T01:51:25;-0.96;74.15
19536;HTU21D;9913;51.168;4.124;2023-03-01T01:53:58;-0.98;74.30
19536;HTU21D;9913;51.168;4.124;2023-03-01T01:56:30;-0.96;74.08
19536;HTU21D;9913;51.168;4.124;2023-03-01T01:58:58;-0.91;74.63
19536;HTU21D;9913;51.168;4.124;2023-03-01T02:01:27;-0.88;74.78
19536;HTU21D;9913;51.168;4.124;2023-03-01T02:03:55;-0.93;74.86
19536;HTU21D;9913;51.168;4.124;2023-03-01T02:06:28;-1.00;74.65
19536;HTU21D;9913;51.168;4.124;2023-03-01T02:09:01;-1.02;74.14
19536;HTU21D;9913;51.168;4.124;2023-03-01T02:11:32;-1.03;73.36
19536;HTU21D;9913;51.168;4.124;2023-03-01T02:14:03;-1.05;73.58
19536;HTU21D;9913;51.168;4.124;2023-03-01T02:16:31;-1.03;73.23
19536;HTU21D;9913;51.168;4.124;2023-03-01T02:19:01;-1.11;72.33
19536;HTU21D;9913;51.168;4.124;2023-03-01T02:21:38;-1.11;72.16
19536;HTU21D;9913;51.168;4.124;2023-03-01T02:24:17;-1.06;71.93
19536;HTU21D;9913;51.168;4.124;2023-03-01T02:26:52;-1.05;72.00
19536;HTU21D;9913;51.168;4.124;2023-03-01T02:29:24;-1.04;71.93
19536;HTU21D;9913;51.168;4.124;2023-03-01T02:31:52;-1.03;71.96
19536;HTU21D;9913;51.168;4.124;2023-03-01T02:34:26;-1.03;72.01
19536;HTU21D;9913;51.168;4.124;2023-03-01T02:36:59;-1.01;72.03
19536;HTU21D;9913;51.168;4.124;2023-03-01T02:39:34;-1.02;72.10
19536;HTU21D;9913;51.168;4.124;2023-03-01T02:42:04;-1.05;72.19
19536;HTU21D;9913;51.168;4.124;2023-03-01T02:44:34;-1.11;72.16
19536;HTU21D;9913;51.168;4.124;2023-03-01T02:47:03;-1.19;72.04
19536;HTU21D;9913;51.168;4.124;2023-03-01T02:49:35;-1.17;71.54
19536;HTU21D;9913;51.168;4.124;2023-03-01T02:52:17;-1.15;71.00
19536;HTU21D;9913;51.168;4.124;2023-03-01T02:54:53;-1.13;70.74
19536;HTU21D;9913;51.168;4.124;2023-03-01T02:57:25;-1.08;70.38
19536;HTU21D;9913;51.168;4.124;2023-03-01T02:59:57;-1.13;69.69
19536;HTU21D;9913;51.168;4.124;2023-03-01T03:02:30;-1.12;69.07
19536;HTU21D;9913;51.168;4.124;2023-03-01T03:05:12;-1.13;68.28
19536;HTU21D;9913;51.168;4.124;2023-03-01T03:07:42;-1.12;67.74
19536;HTU21D;9913;51.168;4.124;2023-03-01T03:10:13;-1.15;67.31
19536;HTU21D;9913;51.168;4.124;2023-03-01T03:12:42;-1.16;67.02
19536;HTU21D;9913;51.168;4.124;2023-03-01T03:15:12;-1.18;66.59
19536;HTU21D;9913;51.168;4.124;2023-03-01T03:17:41;-1.18;66.23
19536;HTU21D;9913;51.168;4.124;2023-03-01T03:20:15;-1.18;65.95
19536;HTU21D;9913;51.168;4.124;2023-03-01T03:22:46;-1.20;65.51
19536;HTU21D;9913;51.168;4.124;2023-03-01T03:25:16;-1.24;65.10
19536;HTU21D;9913;51.168;4.124;2023-03-01T03:27:46;-1.21;65.02
19536;HTU21D;9913;51.168;4.124;2023-03-01T03:30:18;-1.20;64.89
19536;HTU21D;9913;51.168;4.124;2023-03-01T03:32:48;-1.17;64.73
19536;HTU21D;9913;51.168;4.124;2023-03-01T03:35:21;-1.21;64.71
19536;HTU21D;9913;51.168;4.124;2023-03-01T03:37:52;-1.25;64.56
19536;HTU21D;9913;51.168;4.124;2023-03-01T03:40:35;-1.27;64.56
19536;HTU21D;9913;51.168;4.124;2023-03-01T03:43:06;-1.29;64.41
19536;HTU21D;9913;51.168;4.124;2023-03-01T03:45:37;-1.30;64.29
19536;HTU21D;9913;51.168;4.124;2023-03-01T03:48:07;-1.34;64.27
19536;HTU21D;9913;51.168;4.124;2023-03-01T03:50:38;-1.31;64.08
19536;HTU21D;9913;51.168;4.124;2023-03-01T03:53:09;-1.29;64.11
19536;HTU21D;9913;51.168;4.124;2023-03-01T03:55:38;-1.32;64.21
19536;HTU21D;9913;51.168;4.124;2023-03-01T03:58:08;-1.28;64.01
19536;HTU21D;9913;51.168;4.124;2023-03-01T04:00:40;-1.28;64.02
19536;HTU21D;9913;51.168;4.124;2023-03-01T04:03:10;-1.29;64.01
19536;HTU21D;9913;51.168;4.124;2023-03-01T04:05:40;-1.29;63.98
19536;HTU21D;9913;51.168;4.124;2023-03-01T04:08:08;-1.31;63.89
19536;HTU21D;9913;51.168;4.124;2023-03-01T04:10:38;-1.34;63.95
19536;HTU21D;9913;51.168;4.124;2023-03-01T04:13:10;-1.39;63.84
19536;HTU21D;9913;51.168;4.124;2023-03-01T04:15:40;-1.35;63.85
19536;HTU21D;9913;51.168;4.124;2023-03-01T04:18:12;-1.40;63.83
19536;HTU21D;9913;51.168;4.124;2023-03-01T04:20:42;-1.34;63.88
19536;HTU21D;9913;51.168;4.124;2023-03-01T04:23:14;-1.44;63.86
19536;HTU21D;9913;51.168;4.124;2023-03-01T04:25:46;-1.43;63.79
19536;HTU21D;9913;51.168;4.124;2023-03-01T04:28:21;-1.53;63.93
19536;HTU21D;9913;51.168;4.124;2023-03-01T04:30:54;-1.50;63.88
19536;HTU21D;9913;51.168;4.124;2023-03-01T04:33:23;-1.55;63.83
19536;HTU21D;9913;51.168;4.124;2023-03-01T04:35:51;-1.47;63.93
19536;HTU21D;9913;51.168;4.124;2023-03-01T04:38:20;-1.50;63.93
19536;HTU21D;9913;51.168;4.124;2023-03-01T04:40:49;-1.53;63.86
19536;HTU21D;9913;51.168;4.124;2023-03-01T04:43:17;-1.56;63.93
19536;HTU21D;9913;51.168;4.124;2023-03-01T04:45:45;-1.55;63.97
19536;HTU21D;9913;51.168;4.124;2023-03-01T04:48:15;-1.57;63.89
19536;HTU21D;9913;51.168;4.124;2023-03-01T04:50:43;-1.53;63.95
19536;HTU21D;9913;51.168;4.124;2023-03-01T04:53:11;-1.50;63.97
19536;HTU21D;9913;51.168;4.124;2023-03-01T04:55:39;-1.53;64.00
19536;HTU21D;9913;51.168;4.124;2023-03-01T04:58:08;-1.47;64.06
19536;HTU21D;9913;51.168;4.124;2023-03-01T05:00:36;-1.48;64.04
19536;HTU21D;9913;51.168;4.124;2023-03-01T05:03:04;-1.53;64.03
19536;HTU21D;9913;51.168;4.124;2023-03-01T05:05:36;-1.54;64.03
19536;HTU21D;9913;51.168;4.124;2023-03-01T05:08:06;-1.57;64.06
19536;HTU21D;9913;51.168;4.124;2023-03-01T05:10:36;-1.64;64.03
19536;HTU21D;9913;51.168;4.124;2023-03-01T05:13:05;-1.65;63.91
19536;HTU21D;9913;51.168;4.124;2023-03-01T05:15:34;-1.60;64.08
19536;HTU21D;9913;51.168;4.124;2023-03-01T05:18:03;-1.62;64.10
19536;HTU21D;9913;51.168;4.124;2023-03-01T05:20:35;-1.67;64.07
19536;HTU21D;9913;51.168;4.124;2023-03-01T05:23:04;-1.73;64.02
19536;HTU21D;9913;51.168;4.124;2023-03-01T05:25:33;-1.77;63.97
19536;HTU21D;9913;51.168;4.124;2023-03-01T05:28:10;-1.75;63.97
19536;HTU21D;9913;51.168;4.124;2023-03-01T05:30:39;-1.85;64.04
19536;HTU21D;9913;51.168;4.124;2023-03-01T05:33:08;-1.85;64.06
19536;HTU21D;9913;51.168;4.124;2023-03-01T05:35:43;-1.88;63.98
19536;HTU21D;9913;51.168;4.124;2023-03-01T05:38:12;-1.97;64.05
19536;HTU21D;9913;51.168;4.124;2023-03-01T05:40:41;-1.97;63.99
19536;HTU21D;9913;51.168;4.124;2023-03-01T05:43:10;-1.92;63.96
19536;HTU21D;9913;51.168;4.124;2023-03-01T05:45:39;-1.93;64.02
19536;HTU21D;9913;51.168;4.124;2023-03-01T05:48:10;-1.93;63.98
19536;HTU21D;9913;51.168;4.124;2023-03-01T05:50:42;-2.00;64.11
19536;HTU21D;9913;51.168;4.124;2023-03-01T05:53:12;-2.05;64.03
19536;HTU21D;9913;51.168;4.124;2023-03-01T05:55:42;-2.03;63.84
19536;HTU21D;9913;51.168;4.124;2023-03-01T05:58:13;-1.98;64.02
19536;HTU21D;9913;51.168;4.124;2023-03-01T06:00:42;-1.95;63.98
19536;HTU21D;9913;51.168;4.124;2023-03-01T06:03:13;-1.94;64.04
19536;HTU21D;9913;51.168;4.124;2023-03-01T06:05:43;-2.01;64.03
19536;HTU21D;9913;51.168;4.124;2023-03-01T06:08:12;-1.95;64.09
19536;HTU21D;9913;51.168;4.124;2023-03-01T06:10:40;-1.97;64.01
19536;HTU21D;9913;51.168;4.124;2023-03-01T06:13:09;-1.99;64.15
19536;HTU21D;9913;51.168;4.124;2023-03-01T06:15:37;-2.04;64.07
19536;HTU21D;9913;51.168;4.124;2023-03-01T06:18:05;-2.07;64.02
19536;HTU21D;9913;51.168;4.124;2023-03-01T06:20:34;-2.05;64.02
19536;HTU21D;9913;51.168;4.124;2023-03-01T06:23:03;-2.06;64.16
19536;HTU21D;9913;51.168;4.124;2023-03-01T06:25:32;-2.08;64.21
19536;HTU21D;9913;51.168;4.124;2023-03-01T06:28:00;-2.07;64.19
19536;HTU21D;9913;51.168;4.124;2023-03-01T06:30:44;-2.07;64.17
19536;HTU21D;9913;51.168;4.124;2023-03-01T06:33:13;-2.05;64.14
19536;HTU21D;9913;51.168;4.124;2023-03-01T06:35:41;-2.04;64.21
19536;HTU21D;9913;51.168;4.124;2023-03-01T06:38:11;-2.06;64.21
19536;HTU21D;9913;51.168;4.124;2023-03-01T06:40:41;-2.01;64.26
19536;HTU21D;9913;51.168;4.124;2023-03-01T06:43:10;-2.02;64.29
19536;HTU21D;9913;51.168;4.124;2023-03-01T06:45:38;-2.01;64.24
19536;HTU21D;9913;51.168;4.124;2023-03-01T06:48:07;-1.98;64.30
19536;HTU21D;9913;51.168;4.124;2023-03-01T06:50:36;-1.99;64.35
19536;HTU21D;9913;51.168;4.124;2023-03-01T06:53:05;-1.90;64.34
19536;HTU21D;9913;51.168;4.124;2023-03-01T06:55:35;-1.84;64.39
19536;HTU21D;9913;51.168;4.124;2023-03-01T06:58:03;-1.83;64.42
19536;HTU21D;9913;51.168;4.124;2023-03-01T07:00:32;-1.79;64.50
19536;HTU21D;9913;51.168;4.124;2023-03-01T07:03:01;-1.72;64.40
19536;HTU21D;9913;51.168;4.124;2023-03-01T07:05:30;-1.69;64.50
19536;HTU21D;9913;51.168;4.124;2023-03-01T07:07:58;-1.63;64.54
19536;HTU21D;9913;51.168;4.124;2023-03-01T07:10:27;-1.57;64.59
19536;HTU21D;9913;51.168;4.124;2023-03-01T07:12:57;-1.57;64.59
19536;HTU21D;9913;51.168;4.124;2023-03-01T07:15:27;-1.52;64.65
19536;HTU21D;9913;51.168;4.124;2023-03-01T07:17:56;-1.50;64.59
19536;HTU21D;9913;51.168;4.124;2023-03-01T07:20:24;-1.49;64.63
19536;HTU21D;9913;51.168;4.124;2023-03-01T07:22:53;-1.39;64.79
19536;HTU21D;9913;51.168;4.124;2023-03-01T07:25:21;-1.28;64.87
19536;HTU21D;9913;51.168;4.124;2023-03-01T07:27:50;-1.20;65.08
19536;HTU21D;9913;51.168;4.124;2023-03-01T07:30:21;-1.13;65.02
19536;HTU21D;9913;51.168;4.124;2023-03-01T07:32:52;-0.99;65.20
19536;HTU21D;9913;51.168;4.124;2023-03-01T07:35:21;-0.87;65.62
19536;HTU21D;9913;51.168;4.124;2023-03-01T07:37:50;-0.84;65.45
19536;HTU21D;9913;51.168;4.124;2023-03-01T07:40:18;-0.77;65.51
19536;HTU21D;9913;51.168;4.124;2023-03-01T07:42:47;-0.65;65.81
19536;HTU21D;9913;51.168;4.124;2023-03-01T07:45:15;-0.55;66.01
19536;HTU21D;9913;51.168;4.124;2023-03-01T07:47:45;-0.44;66.11
19536;HTU21D;9913;51.168;4.124;2023-03-01T07:50:13;-0.30;66.20
19536;HTU21D;9913;51.168;4.124;2023-03-01T07:52:44;-0.16;66.33
19536;HTU21D;9913;51.168;4.124;2023-03-01T07:55:13;-0.11;66.20
19536;HTU21D;9913;51.168;4.124;2023-03-01T07:57:41;0.03;66.51
19536;HTU21D;9913;51.168;4.124;2023-03-01T08:00:11;0.10;66.56
19536;HTU21D;9913;51.168;4.124;2023-03-01T08:02:40;0.21;66.90
19536;HTU21D;9913;51.168;4.124;2023-03-01T08:05:10;0.29;66.53
19536;HTU21D;9913;51.168;4.124;2023-03-01T08:07:38;0.31;66.29
19536;HTU21D;9913;51.168;4.124;2023-03-01T08:10:08;0.44;66.79
19536;HTU21D;9913;51.168;4.124;2023-03-01T08:12:36;0.60;66.99
19536;HTU21D;9913;51.168;4.124;2023-03-01T08:15:06;0.63;66.96
19536;HTU21D;9913;51.168;4.124;2023-03-01T08:17:34;0.74;66.89
19536;HTU21D;9913;51.168;4.124;2023-03-01T08:20:03;0.89;67.23
19536;HTU21D;9913;51.168;4.124;2023-03-01T08:22:35;0.99;67.88
19536;HTU21D;9913;51.168;4.124;2023-03-01T08:25:03;1.13;67.32
19536;HTU21D;9913;51.168;4.124;2023-03-01T08:27:32;1.12;67.07
19536;HTU21D;9913;51.168;4.124;2023-03-01T08:30:00;1.31;68.23
19536;HTU21D;9913;51.168;4.124;2023-03-01T08:32:28;1.50;67.80
19536;HTU21D;9913;51.168;4.124;2023-03-01T08:34:57;1.61;67.36
19536;HTU21D;9913;51.168;4.124;2023-03-01T08:37:25;1.62;67.35
19536;HTU21D;9913;51.168;4.124;2023-03-01T08:40:02;1.69;66.88
19536;HTU21D;9913;51.168;4.124;2023-03-01T08:42:34;1.76;68.10
19536;HTU21D;9913;51.168;4.124;2023-03-01T08:45:02;1.91;68.37
19536;HTU21D;9913;51.168;4.124;2023-03-01T08:47:31;1.93;68.46
19536;HTU21D;9913;51.168;4.124;2023-03-01T08:50:00;1.95;67.49
19536;HTU21D;9913;51.168;4.124;2023-03-01T08:52:28;1.99;68.06
19536;HTU21D;9913;51.168;4.124;2023-03-01T08:54:57;2.02;67.78
19536;HTU21D;9913;51.168;4.124;2023-03-01T08:57:26;2.09;67.25
19536;HTU21D;9913;51.168;4.124;2023-03-01T08:59:55;2.19;68.21
19536;HTU21D;9913;51.168;4.124;2023-03-01T09:02:24;2.24;67.67
19536;HTU21D;9913;51.168;4.124;2023-03-01T09:04:52;2.24;67.78
19536;HTU21D;9913;51.168;4.124;2023-03-01T09:07:20;2.46;67.68
19536;HTU21D;9913;51.168;4.124;2023-03-01T09:09:48;2.52;67.88
19536;HTU21D;9913;51.168;4.124;2023-03-01T09:12:20;2.59;67.91
19536;HTU21D;9913;51.168;4.124;2023-03-01T09:14:50;2.67;67.67
19536;HTU21D;9913;51.168;4.124;2023-03-01T09:17:18;2.66;67.39
19536;HTU21D;9913;51.168;4.124;2023-03-01T09:19:48;2.66;67.38
19536;HTU21D;9913;51.168;4.124;2023-03-01T09:22:16;2.66;67.61
19536;HTU21D;9913;51.168;4.124;2023-03-01T09:24:44;2.62;67.72
19536;HTU21D;9913;51.168;4.124;2023-03-01T09:27:13;2.78;66.65
19536;HTU21D;9913;51.168;4.124;2023-03-01T09:29:41;2.88;66.72
19536;HTU21D;9913;51.168;4.124;2023-03-01T09:32:11;2.86;67.45
19536;HTU21D;9913;51.168;4.124;2023-03-01T09:34:40;3.04;67.55
19536;HTU21D;9913;51.168;4.124;2023-03-01T09:37:22;3.17;67.43
19536;HTU21D;9913;51.168;4.124;2023-03-01T09:39:50;3.27;67.71
19536;HTU21D;9913;51.168;4.124;2023-03-01T09:42:19;3.36;66.89
19536;HTU21D;9913;51.168;4.124;2023-03-01T09:44:51;3.56;68.31
19536;HTU21D;9913;51.168;4.124;2023-03-01T09:47:23;3.67;68.91
19536;HTU21D;9913;51.168;4.124;2023-03-01T09:49:58;3.63;68.93
19536;HTU21D;9913;51.168;4.124;2023-03-01T09:52:33;3.84;68.41
19536;HTU21D;9913;51.168;4.124;2023-03-01T09:55:08;3.92;69.42
19536;HTU21D;9913;51.168;4.124;2023-03-01T09:57:43;4.22;69.23
19536;HTU21D;9913;51.168;4.124;2023-03-01T10:00:23;4.16;70.10
19536;HTU21D;9913;51.168;4.124;2023-03-01T10:03:02;4.31;70.16
19536;HTU21D;9913;51.168;4.124;2023-03-01T10:05:43;4.28;69.10
19536;HTU21D;9913;51.168;4.124;2023-03-01T10:08:34;4.35;69.25
19536;HTU21D;9913;51.168;4.124;2023-03-01T10:11:19;4.43;68.56
19536;HTU21D;9913;51.168;4.124;2023-03-01T10:13:57;4.49;67.71
19536;HTU21D;9913;51.168;4.124;2023-03-01T10:16:34;4.46;66.98
19536;HTU21D;9913;51.168;4.124;2023-03-01T10:19:10;4.75;68.14
19536;HTU21D;9913;51.168;4.124;2023-03-01T10:21:44;4.82;67.60
19536;HTU21D;9913;51.168;4.124;2023-03-01T10:24:15;4.77;66.72
19536;HTU21D;9913;51.168;4.124;2023-03-01T10:26:51;4.86;66.08
19536;HTU21D;9913;51.168;4.124;2023-03-01T10:29:24;4.98;95.49
19536;HTU21D;9913;51.168;4.124;2023-03-01T10:31:54;4.91;93.12
19536;HTU21D;9913;51.168;4.124;2023-03-01T10:34:28;5.06;90.92
19536;HTU21D;9913;51.168;4.124;2023-03-01T10:37:01;5.26;90.95
19536;HTU21D;9913;51.168;4.124;2023-03-01T10:39:36;5.11;91.65
19536;HTU21D;9913;51.168;4.124;2023-03-01T10:42:14;5.42;91.12
19536;HTU21D;9913;51.168;4.124;2023-03-01T10:44:48;5.37;91.37
19536;HTU21D;9913;51.168;4.124;2023-03-01T10:47:19;5.40;91.25
19536;HTU21D;9913;51.168;4.124;2023-03-01T10:49:58;5.57;90.26
19536;HTU21D;9913;51.168;4.124;2023-03-01T10:52:29;5.65;91.15
19536;HTU21D;9913;51.168;4.124;2023-03-01T10:54:59;5.74;89.86
19536;HTU21D;9913;51.168;4.124;2023-03-01T10:57:32;5.52;89.47
19536;HTU21D;9913;51.168;4.124;2023-03-01T11:00:24;5.65;89.64
19536;HTU21D;9913;51.168;4.124;2023-03-01T11:03:09;5.57;89.70
19536;HTU21D;9913;51.168;4.124;2023-03-01T11:05:53;5.72;88.84
19536;HTU21D;9913;51.168;4.124;2023-03-01T11:08:31;5.70;89.77
19536;HTU21D;9913;51.168;4.124;2023-03-01T11:11:17;5.91;89.09
19536;HTU21D;9913;51.168;4.124;2023-03-01T11:13:57;6.12;90.44
19536;HTU21D;9913;51.168;4.124;2023-03-01T11:16:29;5.92;89.77
19536;HTU21D;9913;51.168;4.124;2023-03-01T11:22:00;6.15;91.42
19536;HTU21D;9913;51.168;4.124;2023-03-01T11:24:39;6.00;90.06
19536;HTU21D;9913;51.168;4.124;2023-03-01T11:27:18;6.29;90.36
19536;HTU21D;9913;51.168;4.124;2023-03-01T11:29:51;5.91;90.16
19536;HTU21D;9913;51.168;4.124;2023-03-01T11:32:23;5.93;90.47
19536;HTU21D;9913;51.168;4.124;2023-03-01T11:34:57;6.14;89.59
19536;HTU21D;9913;51.168;4.124;2023-03-01T11:37:40;6.34;91.14
19536;HTU21D;9913;51.168;4.124;2023-03-01T11:40:15;6.22;90.53
19536;HTU21D;9913;51.168;4.124;2023-03-01T11:42:50;6.38;90.44
19536;HTU21D;9913;51.168;4.124;2023-03-01T11:45:22;6.38;89.97
19536;HTU21D;9913;51.168;4.124;2023-03-01T11:48:07;6.37;90.57
19536;HTU21D;9913;51.168;4.124;2023-03-01T11:50:44;6.69;86.51
19536;HTU21D;9913;51.168;4.124;2023-03-01T11:53:36;6.88;90.73
19536;HTU21D;9913;51.168;4.124;2023-03-01T11:56:15;6.84;90.19
19536;HTU21D;9913;51.168;4.124;2023-03-01T11:59:13;6.89;90.21
19536;HTU21D;9913;51.168;4.124;2023-03-01T12:01:56;6.74;90.75
19536;HTU21D;9913;51.168;4.124;2023-03-01T12:04:51;6.79;88.96
19536;HTU21D;9913;51.168;4.124;2023-03-01T12:07:27;6.88;89.55
19536;HTU21D;9913;51.168;4.124;2023-03-01T12:10:17;7.07;89.87
19536;HTU21D;9913;51.168;4.124;2023-03-01T12:15:54;7.24;88.89
19536;HTU21D;9913;51.168;4.124;2023-03-01T12:21:30;7.17;87.32
19536;HTU21D;9913;51.168;4.124;2023-03-01T12:24:30;7.20;89.18
19536;HTU21D;9913;51.168;4.124;2023-03-01T12:27:17;7.03;86.48
19536;HTU21D;9913;51.168;4.124;2023-03-01T12:29:54;7.07;87.83
19536;HTU21D;9913;51.168;4.124;2023-03-01T12:32:50;7.10;87.13
19536;HTU21D;9913;51.168;4.124;2023-03-01T12:35:44;7.13;87.46
19536;HTU21D;9913;51.168;4.124;2023-03-01T12:38:30;7.32;88.28
19536;HTU21D;9913;51.168;4.124;2023-03-01T12:41:25;7.39;87.80
19536;HTU21D;9913;51.168;4.124;2023-03-01T12:44:08;7.20;86.03
19536;HTU21D;9913;51.168;4.124;2023-03-01T12:46:51;7.31;87.77
19536;HTU21D;9913;51.168;4.124;2023-03-01T12:49:28;7.56;86.96
19536;HTU21D;9913;51.168;4.124;2023-03-01T12:52:00;7.48;86.58
19536;HTU21D;9913;51.168;4.124;2023-03-01T12:54:31;7.73;86.39
19536;HTU21D;9913;51.168;4.124;2023-03-01T12:57:05;7.42;86.41
19536;HTU21D;9913;51.168;4.124;2023-03-01T12:59:41;7.28;86.02
19536;HTU21D;9913;51.168;4.124;2023-03-01T13:02:15;7.53;87.25
19536;HTU21D;9913;51.168;4.124;2023-03-01T13:04:54;7.56;87.19
19536;HTU21D;9913;51.168;4.124;2023-03-01T13:07:30;7.58;86.46
19536;HTU21D;9913;51.168;4.124;2023-03-01T13:10:11;7.60;85.79
19536;HTU21D;9913;51.168;4.124;2023-03-01T13:12:45;7.50;85.08
19536;HTU21D;9913;51.168;4.124;2023-03-01T13:15:32;7.41;85.96
19536;HTU21D;9913;51.168;4.124;2023-03-01T13:18:03;7.57;86.42
19536;HTU21D;9913;51.168;4.124;2023-03-01T13:20:46;7.79;87.25
19536;HTU21D;9913;51.168;4.124;2023-03-01T13:23:25;7.69;86.29
19536;HTU21D;9913;51.168;4.124;2023-03-01T13:28:59;7.74;85.28
19536;HTU21D;9913;51.168;4.124;2023-03-01T13:31:59;7.57;84.09
19536;HTU21D;9913;51.168;4.124;2023-03-01T13:34:54;7.91;85.55
19536;HTU21D;9913;51.168;4.124;2023-03-01T13:37:34;7.81;83.75
19536;HTU21D;9913;51.168;4.124;2023-03-01T13:42:50;7.98;83.77
19536;HTU21D;9913;51.168;4.124;2023-03-01T13:45:36;7.74;84.83
19536;HTU21D;9913;51.168;4.124;2023-03-01T13:48:11;7.69;83.23
19536;HTU21D;9913;51.168;4.124;2023-03-01T13:50:46;7.61;83.78
19536;HTU21D;9913;51.168;4.124;2023-03-01T13:53:17;7.69;83.02
19536;HTU21D;9913;51.168;4.124;2023-03-01T13:55:47;7.83;84.52
19536;HTU21D;9913;51.168;4.124;2023-03-01T13:58:20;7.86;84.29
19536;HTU21D;9913;51.168;4.124;2023-03-01T14:00:56;8.00;83.65
19536;HTU21D;9913;51.168;4.124;2023-03-01T14:03:27;7.99;83.02
19536;HTU21D;9913;51.168;4.124;2023-03-01T14:06:01;7.87;84.22
19536;HTU21D;9913;51.168;4.124;2023-03-01T14:08:41;7.67;84.30
19536;HTU21D;9913;51.168;4.124;2023-03-01T14:14:27;8.01;84.26
19536;HTU21D;9913;51.168;4.124;2023-03-01T14:17:05;7.94;84.02
19536;HTU21D;9913;51.168;4.124;2023-03-01T14:19:38;7.82;83.84
19536;HTU21D;9913;51.168;4.124;2023-03-01T14:22:23;7.69;83.89
19536;HTU21D;9913;51.168;4.124;2023-03-01T14:24:55;7.81;82.87
19536;HTU21D;9913;51.168;4.124;2023-03-01T14:27:27;7.73;84.33
19536;HTU21D;9913;51.168;4.124;2023-03-01T14:29:58;7.93;83.99
19536;HTU21D;9913;51.168;4.124;2023-03-01T14:32:28;7.81;83.97
19536;HTU21D;9913;51.168;4.124;2023-03-01T14:34:59;7.78;84.70
19536;HTU21D;9913;51.168;4.124;2023-03-01T14:37:29;7.54;83.79
19536;HTU21D;9913;51.168;4.124;2023-03-01T14:40:00;7.87;84.10
19536;HTU21D;9913;51.168;4.124;2023-03-01T14:42:34;7.97;84.45
19536;HTU21D;9913;51.168;4.124;2023-03-01T14:45:04;8.06;84.65
19536;HTU21D;9913;51.168;4.124;2023-03-01T14:47:35;8.06;84.20
19536;HTU21D;9913;51.168;4.124;2023-03-01T14:50:09;7.81;84.25
19536;HTU21D;9913;51.168;4.124;2023-03-01T14:52:40;7.88;84.58
19536;HTU21D;9913;51.168;4.124;2023-03-01T14:55:16;7.91;84.43
19536;HTU21D;9913;51.168;4.124;2023-03-01T14:57:47;7.87;84.58
19536;HTU21D;9913;51.168;4.124;2023-03-01T15:00:19;8.19;84.32
19536;HTU21D;9913;51.168;4.124;2023-03-01T15:02:50;8.39;83.16
19536;HTU21D;9913;51.168;4.124;2023-03-01T15:05:25;8.97;82.71
19536;HTU21D;9913;51.168;4.124;2023-03-01T15:07:54;8.61;82.72
19536;HTU21D;9913;51.168;4.124;2023-03-01T15:10:24;8.21;82.73
19536;HTU21D;9913;51.168;4.124;2023-03-01T15:12:53;8.32;83.81
19536;HTU21D;9913;51.168;4.124;2023-03-01T15:15:33;8.17;83.32
19536;HTU21D;9913;51.168;4.124;2023-03-01T15:18:04;8.15;84.33
19536;HTU21D;9913;51.168;4.124;2023-03-01T15:20:34;8.47;84.68
19536;HTU21D;9913;51.168;4.124;2023-03-01T15:23:03;8.95;83.21
19536;HTU21D;9913;51.168;4.124;2023-03-01T15:25:32;8.91;82.81
19536;HTU21D;9913;51.168;4.124;2023-03-01T15:28:02;9.38;83.26
19536;HTU21D;9913;51.168;4.124;2023-03-01T15:30:32;10.03;80.49
19536;HTU21D;9913;51.168;4.124;2023-03-01T15:33:27;9.61;81.04
19536;HTU21D;9913;51.168;4.124;2023-03-01T15:35:58;8.67;81.89
19536;HTU21D;9913;51.168;4.124;2023-03-01T15:38:30;8.89;83.39
19536;HTU21D;9913;51.168;4.124;2023-03-01T15:41:00;9.16;81.40
19536;HTU21D;9913;51.168;4.124;2023-03-01T15:43:41;8.61;82.36
19536;HTU21D;9913;51.168;4.124;2023-03-01T15:46:18;8.11;82.58
19536;HTU21D;9913;51.168;4.124;2023-03-01T15:48:52;7.27;82.70
19536;HTU21D;9913;51.168;4.124;2023-03-01T15:51:29;7.13;84.28
19536;HTU21D;9913;51.168;4.124;2023-03-01T15:53:59;7.25;83.64
19536;HTU21D;9913;51.168;4.124;2023-03-01T15:56:28;7.05;83.71
19536;HTU21D;9913;51.168;4.124;2023-03-01T15:58:58;6.65;83.84
19536;HTU21D;9913;51.168;4.124;2023-03-01T16:01:27;6.57;85.06
19536;HTU21D;9913;51.168;4.124;2023-03-01T16:03:55;6.45;85.21
19536;HTU21D;9913;51.168;4.124;2023-03-01T16:06:26;6.49;85.60
19536;HTU21D;9913;51.168;4.124;2023-03-01T16:08:55;6.41;84.27
19536;HTU21D;9913;51.168;4.124;2023-03-01T16:11:23;6.31;84.56
19536;HTU21D;9913;51.168;4.124;2023-03-01T16:13:51;6.20;84.05
19536;HTU21D;9913;51.168;4.124;2023-03-01T16:16:20;6.15;84.63
19536;HTU21D;9913;51.168;4.124;2023-03-01T16:18:49;6.05;85.43
19536;HTU21D;9913;51.168;4.124;2023-03-01T16:21:22;6.01;85.48
19536;HTU21D;9913;51.168;4.124;2023-03-01T16:23:52;5.93;84.87
19536;HTU21D;9913;51.168;4.124;2023-03-01T16:26:21;5.99;84.48
19536;HTU21D;9913;51.168;4.124;2023-03-01T16:28:49;5.91;85.03